This is the latest recevied weather packets stored in our database for station/object DM4XI-13. If no packets are shown the sender has not sent any weather packets the latest 10 day(s).
| Time | Temp. | Humidity | Pressure | Rain* | Wind** | Luminosity | Snow |
|---|---|---|---|---|---|---|---|
| 1788149179 | 60° F | 95% | 759.9 mmHg | 0.03 in | 1 mph, 172° | 0 W/m² | - |
| 1788149119 | 60° F | 95% | 759.9 mmHg | 0.03 in | 2 mph, 222° | 0 W/m² | - |
| 1788149059 | 60° F | 95% | 759.8 mmHg | 0.03 in | 1 mph, 225° | 0 W/m² | - |
| 1788148999 | 60° F | 95% | 759.8 mmHg | 0.02 in | 1 mph, 199° | 0 W/m² | - |
| 1788148939 | 60° F | 95% | 759.9 mmHg | 0.02 in | 5 mph, 270° | 0 W/m² | - |
| 1788148879 | 60° F | 95% | 760 mmHg | 0.01 in | 2 mph, 280° | 0 W/m² | - |
| 1788148820 | 60° F | 95% | 759.9 mmHg | 0 in | 2 mph, 263° | 0 W/m² | - |
| 1788148760 | 60° F | 95% | 760 mmHg | 0.34 in | 1 mph, 187° | 0 W/m² | - |
| 1788148699 | 60° F | 95% | 760 mmHg | 0.34 in | 5 mph, 258° | 0 W/m² | - |
| 1788148639 | 60° F | 95% | 760 mmHg | 0.33 in | 1 mph, 185° | 0 W/m² | - |
| 1788148579 | 60° F | 95% | 759.9 mmHg | 0.32 in | 3 mph, 309° | 0 W/m² | - |
| 1788148519 | 60° F | 94% | 760 mmHg | 0.31 in | 2 mph, 262° | 0 W/m² | - |
| 1788148459 | 60° F | 94% | 759.9 mmHg | 0.31 in | 3 mph, 260° | 0 W/m² | - |
| 1788148399 | 60° F | 94% | 759.9 mmHg | 0.3 in | 4 mph, 277° | 0 W/m² | - |
| 1788148339 | 60° F | 94% | 759.9 mmHg | 0.3 in | 2 mph, 277° | 0 W/m² | - |
| 1788148279 | 60° F | 94% | 759.9 mmHg | 0.29 in | 1 mph, 235° | 0 W/m² | - |
| 1788148219 | 60° F | 94% | 760 mmHg | 0.29 in | 2 mph, 252° | 0 W/m² | - |
| 1788148159 | 60° F | 94% | 760 mmHg | 0.28 in | 2 mph, 32° | 0 W/m² | - |
| 1788148099 | 60° F | 94% | 759.9 mmHg | 0.25 in | 4 mph, 327° | 0 W/m² | - |
| 1788148039 | 60° F | 94% | 760.1 mmHg | 0.25 in | 2 mph, 306° | 0 W/m² | - |
| 1788147979 | 60° F | 94% | 760 mmHg | 0.24 in | 4 mph, 293° | 0 W/m² | - |
| 1788147919 | 60° F | 93% | 760.1 mmHg | 0.23 in | 5 mph, 270° | 0 W/m² | - |
| 1788147859 | 60° F | 93% | 760 mmHg | 0.22 in | 3 mph, 205° | 0 W/m² | - |
| 1788147799 | 60° F | 93% | 760 mmHg | 0.21 in | 6 mph, 278° | 0 W/m² | - |
| 1788147739 | 60° F | 93% | 760.1 mmHg | 0.19 in | 0 mph | 0 W/m² | - |
* Rain latest hour (hover to see other rain measurements)
** Current wind speed in m/s (hover to see current wind gust speed)